Time;durP1;ratioP1;P1;durP2;ratioP2;P2;SDS_P1;SDS_P2;PMS_P1;PMS_P2;Temp;Humidity;BMP_temperature;BMP_pressure;BME280_temperature;BME280_humidity;BME280_pressure;Samples;Min_cycle;Max_cycle;Signal;HPM_P1;HPM_P2
2022/08/16 00:00:10;;;;;;;2.88;0.90;;;;;;;;;;7395812;19;20011;-78
2022/08/16 00:02:36;;;;;;;1.00;0.90;;;;;;;;;;7394821;19;20010;-78
2022/08/16 00:05:03;;;;;;;1.33;1.00;;;;;;;;;;7392547;19;20524;-77
2022/08/16 00:07:29;;;;;;;3.20;0.88;;;;;;;;;;7396083;19;20006;-77
2022/08/16 00:09:54;;;;;;;1.35;1.10;;;;;;;;;;7398566;19;20002;-77
2022/08/16 00:12:19;;;;;;;1.20;1.00;;;;;;;;;;7399725;19;20006;-78
2022/08/16 00:14:45;;;;;;;1.10;0.68;;;;;;;;;;7400523;19;20011;-77
2022/08/16 00:17:10;;;;;;;0.93;0.90;;;;;;;;;;7401306;19;20482;-77
2022/08/16 00:19:36;;;;;;;0.70;0.70;;;;;;;;;;7397629;19;20094;-77
2022/08/16 00:22:02;;;;;;;5.75;1.40;;;;;;;;;;7398659;19;20007;-78
2022/08/16 00:24:28;;;;;;;1.95;1.10;;;;;;;;;;7398915;19;20042;-78
2022/08/16 00:26:54;;;;;;;0.68;0.68;;;;;;;;;;7397529;19;20572;-77
2022/08/16 00:29:19;;;;;;;0.70;0.70;;;;;;;;;;7397945;19;20052;-77
2022/08/16 00:31:47;;;;;;;1.20;1.00;;;;;;;;;;7399789;19;20002;-78
2022/08/16 00:34:13;;;;;;;0.85;0.73;;;;;;;;;;7397610;19;20022;-77
2022/08/16 00:36:39;;;;;;;0.98;0.80;;;;;;;;;;7399264;19;20742;-77
2022/08/16 00:39:04;;;;;;;1.90;1.10;;;;;;;;;;7398662;19;20474;-77
2022/08/16 00:41:30;;;;;;;1.20;1.00;;;;;;;;;;7397507;19;20010;-77
2022/08/16 00:43:59;;;;;;;2.40;1.45;;;;;;;;;;7395106;19;20062;-77
2022/08/16 00:46:30;;;;;;;4.45;1.40;;;;;;;;;;7393770;19;20006;-77
2022/08/16 00:48:56;;;;;;;2.20;1.30;;;;;;;;;;7394107;19;20011;-77
2022/08/16 00:51:23;;;;;;;3.75;1.20;;;;;;;;;;7395216;19;20006;-77
2022/08/16 00:53:50;;;;;;;1.27;0.90;;;;;;;;;;7402186;19;20556;-78
2022/08/16 00:56:20;;;;;;;2.15;0.90;;;;;;;;;;7404056;19;20034;-77
2022/08/16 00:58:47;;;;;;;1.00;0.88;;;;;;;;;;7402975;19;20007;-77
2022/08/16 01:01:14;;;;;;;1.20;1.10;;;;;;;;;;7403538;19;20026;-78
2022/08/16 01:03:42;;;;;;;1.20;0.98;;;;;;;;;;7401907;19;20010;-77
2022/08/16 01:06:11;;;;;;;1.38;0.88;;;;;;;;;;7404597;19;20010;-77
2022/08/16 01:08:37;;;;;;;1.20;0.60;;;;;;;;;;7395848;19;20042;-77
2022/08/16 01:11:04;;;;;;;1.65;1.00;;;;;;;;;;7395723;19;20014;-77
2022/08/16 01:13:32;;;;;;;1.90;0.77;;;;;;;;;;7394766;19;20014;-78
2022/08/16 01:16:15;;;;;;;1.17;0.88;;;;;;;;;;7394471;19;20018;-77
2022/08/16 01:18:56;;;;;;;1.83;0.80;;;;;;;;;;7395429;19;20070;-77
2022/08/16 01:21:35;;;;;;;0.68;0.60;;;;;;;;;;7395630;19;20030;-77
2022/08/16 01:24:10;;;;;;;0.70;0.70;;;;;;;;;;7394470;19;20003;-77
2022/08/16 01:26:38;;;;;;;0.50;0.50;;;;;;;;;;7394591;19;20027;-77
2022/08/16 01:29:08;;;;;;;1.50;0.57;;;;;;;;;;7394821;19;20015;-77
2022/08/16 01:31:34;;;;;;;1.00;0.50;;;;;;;;;;7394881;19;20042;-77
2022/08/16 01:33:59;;;;;;;0.50;0.50;;;;;;;;;;7394036;19;20480;-78
2022/08/16 01:36:25;;;;;;;1.20;0.90;;;;;;;;;;7393592;19;20006;-77
2022/08/16 01:38:50;;;;;;;3.47;0.70;;;;;;;;;;7393977;19;21243;-77
2022/08/16 01:41:26;;;;;;;1.70;0.50;;;;;;;;;;7395144;19;20010;-77
2022/08/16 01:43:52;;;;;;;0.50;0.50;;;;;;;;;;7390935;19;20479;-77
2022/08/16 01:46:27;;;;;;;0.95;0.60;;;;;;;;;;7394704;19;20374;-77
2022/08/16 01:48:56;;;;;;;1.27;0.40;;;;;;;;;;7392870;19;20062;-77
2022/08/16 01:51:24;;;;;;;2.47;0.70;;;;;;;;;;7393529;19;20014;-77
2022/08/16 01:53:49;;;;;;;0.75;0.68;;;;;;;;;;7391793;19;20058;-77
2022/08/16 01:56:15;;;;;;;1.02;0.60;;;;;;;;;;7393785;19;20010;-77
2022/08/16 01:58:40;;;;;;;0.50;0.50;;;;;;;;;;7395787;19;20085;-77
2022/08/16 02:01:06;;;;;;;0.52;0.38;;;;;;;;;;7390483;19;20010;-77
2022/08/16 02:03:32;;;;;;;0.70;0.60;;;;;;;;;;7392782;19;20007;-77
2022/08/16 02:05:57;;;;;;;0.57;0.57;;;;;;;;;;7390066;19;20443;-77
2022/08/16 02:08:25;;;;;;;1.02;0.90;;;;;;;;;;7391027;19;19998;-77
2022/08/16 02:10:51;;;;;;;0.60;0.60;;;;;;;;;;7391709;19;20017;-77
2022/08/16 02:13:17;;;;;;;0.80;0.65;;;;;;;;;;7388015;19;20066;-77
2022/08/16 02:15:43;;;;;;;0.75;0.47;;;;;;;;;;7385543;19;20066;-77
2022/08/16 02:18:09;;;;;;;1.27;0.63;;;;;;;;;;7392775;19;20019;-77
2022/08/16 02:20:36;;;;;;;3.28;0.90;;;;;;;;;;7390075;19;20090;-77
2022/08/16 02:23:02;;;;;;;0.68;0.68;;;;;;;;;;7392348;19;20018;-78
2022/08/16 02:25:29;;;;;;;1.42;0.60;;;;;;;;;;7390027;19;20066;-77
2022/08/16 02:27:54;;;;;;;2.80;0.90;;;;;;;;;;7391383;19;20011;-77
2022/08/16 02:30:24;;;;;;;1.55;0.80;;;;;;;;;;7391773;19;20016;-77
2022/08/16 02:32:49;;;;;;;1.10;0.50;;;;;;;;;;7390918;19;19998;-77
2022/08/16 02:35:16;;;;;;;0.50;0.50;;;;;;;;;;7391792;19;20030;-77
2022/08/16 02:37:42;;;;;;;0.57;0.57;;;;;;;;;;7393500;19;20465;-77
2022/08/16 02:40:09;;;;;;;2.22;0.90;;;;;;;;;;7393422;19;20031;-77
2022/08/16 02:42:34;;;;;;;0.98;0.65;;;;;;;;;;7393343;19;20475;-77
2022/08/16 02:45:00;;;;;;;0.70;0.70;;;;;;;;;;7391730;19;20538;-77
2022/08/16 02:47:25;;;;;;;1.48;0.82;;;;;;;;;;7390327;19;20017;-77
2022/08/16 02:49:51;;;;;;;1.30;0.80;;;;;;;;;;7391322;19;20014;-77
2022/08/16 02:52:16;;;;;;;1.67;0.85;;;;;;;;;;7391393;19;20453;-77
2022/08/16 02:54:42;;;;;;;3.17;1.67;;;;;;;;;;7392426;19;20082;-77
2022/08/16 02:57:07;;;;;;;2.35;1.60;;;;;;;;;;7392046;19;20017;-77
2022/08/16 02:59:33;;;;;;;2.05;1.33;;;;;;;;;;7392226;19;20018;-77
2022/08/16 03:01:58;;;;;;;1.20;0.98;;;;;;;;;;7392065;19;20498;-77
2022/08/16 03:04:23;;;;;;;1.20;1.08;;;;;;;;;;7388418;19;20015;-77
2022/08/16 03:06:50;;;;;;;1.65;1.05;;;;;;;;;;7388297;19;20022;-77
2022/08/16 03:09:16;;;;;;;1.50;0.85;;;;;;;;;;7388165;19;20014;-77
2022/08/16 03:11:42;;;;;;;1.52;0.88;;;;;;;;;;7391666;19;20366;-77
2022/08/16 03:14:07;;;;;;;1.20;0.80;;;;;;;;;;7389912;19;20028;-77
2022/08/16 03:16:32;;;;;;;2.70;0.75;;;;;;;;;;7389798;19;19998;-77
2022/08/16 03:18:58;;;;;;;2.13;0.70;;;;;;;;;;7389089;19;20022;-77
2022/08/16 03:21:24;;;;;;;1.38;0.70;;;;;;;;;;7391576;19;20370;-77
2022/08/16 03:23:49;;;;;;;0.40;0.40;;;;;;;;;;7385064;19;20011;-77
2022/08/16 03:26:15;;;;;;;1.00;0.50;;;;;;;;;;7388288;19;20021;-77
2022/08/16 03:28:41;;;;;;;0.73;0.60;;;;;;;;;;7391879;19;20049;-77
2022/08/16 03:31:07;;;;;;;0.50;0.50;;;;;;;;;;7387449;19;20319;-77
2022/08/16 03:33:33;;;;;;;0.45;0.45;;;;;;;;;;7391171;19;20014;-77
2022/08/16 03:35:59;;;;;;;0.60;0.60;;;;;;;;;;7389049;19;19999;-77
2022/08/16 03:38:26;;;;;;;0.55;0.43;;;;;;;;;;7390776;19;20006;-77
2022/08/16 03:40:52;;;;;;;0.70;0.70;;;;;;;;;;7387242;19;21706;-77
2022/08/16 03:43:18;;;;;;;1.45;0.68;;;;;;;;;;7397998;19;20025;-77
2022/08/16 03:45:43;;;;;;;2.70;0.80;;;;;;;;;;7395797;19;20469;-77
2022/08/16 03:48:09;;;;;;;1.05;0.82;;;;;;;;;;7396940;19;20018;-77
2022/08/16 03:50:36;;;;;;;1.45;0.63;;;;;;;;;;7398699;19;20017;-77
2022/08/16 03:53:03;;;;;;;0.60;0.60;;;;;;;;;;7392862;19;20006;-77
2022/08/16 03:55:28;;;;;;;0.60;0.50;;;;;;;;;;7396003;19;20025;-77
2022/08/16 03:57:54;;;;;;;0.73;0.68;;;;;;;;;;7394742;19;20006;-77
2022/08/16 04:00:24;;;;;;;1.02;0.73;;;;;;;;;;7397721;19;20006;-77
2022/08/16 04:02:50;;;;;;;0.70;0.70;;;;;;;;;;7396365;19;20442;-77
2022/08/16 04:05:16;;;;;;;2.03;0.65;;;;;;;;;;7396282;19;20022;-77
2022/08/16 04:07:42;;;;;;;0.75;0.60;;;;;;;;;;7395507;19;20006;-77
2022/08/16 04:10:10;;;;;;;0.35;0.35;;;;;;;;;;7397282;19;20022;-77
2022/08/16 04:12:38;;;;;;;0.90;0.50;;;;;;;;;;7399982;19;20389;-77
2022/08/16 04:15:05;;;;;;;1.30;0.63;;;;;;;;;;7398125;19;20007;-77
2022/08/16 04:17:31;;;;;;;0.45;0.45;;;;;;;;;;7391047;19;20014;-77
2022/08/16 04:19:57;;;;;;;0.98;0.60;;;;;;;;;;7397410;19;20014;-77
2022/08/16 04:22:23;;;;;;;0.60;0.60;;;;;;;;;;7392166;19;20016;-77
2022/08/16 04:24:48;;;;;;;0.80;0.80;;;;;;;;;;7393099;19;20007;-77
2022/08/16 04:27:14;;;;;;;1.45;0.60;;;;;;;;;;7395964;19;20106;-77
2022/08/16 04:29:40;;;;;;;1.13;0.80;;;;;;;;;;7396726;19;20010;-77
2022/08/16 04:32:05;;;;;;;3.10;1.10;;;;;;;;;;7395652;19;20034;-77
2022/08/16 04:34:34;;;;;;;0.60;0.60;;;;;;;;;;7397266;19;20339;-77
2022/08/16 04:36:59;;;;;;;0.82;0.73;;;;;;;;;;7393940;19;20014;-77
2022/08/16 04:39:25;;;;;;;1.10;0.68;;;;;;;;;;7396040;19;20006;-77
2022/08/16 04:41:51;;;;;;;1.20;0.60;;;;;;;;;;7391572;19;20014;-77
2022/08/16 04:44:16;;;;;;;1.48;0.88;;;;;;;;;;7396294;19;20051;-77
2022/08/16 04:46:43;;;;;;;1.50;0.80;;;;;;;;;;7393937;19;20002;-77
2022/08/16 04:49:09;;;;;;;1.00;0.77;;;;;;;;;;7394830;19;20513;-77
2022/08/16 04:51:35;;;;;;;0.63;0.57;;;;;;;;;;7391405;19;20035;-77
2022/08/16 04:54:00;;;;;;;1.10;0.95;;;;;;;;;;7391431;19;20396;-77
2022/08/16 04:56:25;;;;;;;2.05;1.00;;;;;;;;;;7394799;19;20122;-77
2022/08/16 04:58:51;;;;;;;1.50;0.98;;;;;;;;;;7387720;19;20003;-77
2022/08/16 05:01:17;;;;;;;1.45;0.60;;;;;;;;;;7382829;19;20015;-78
2022/08/16 05:03:42;;;;;;;2.70;1.00;;;;;;;;;;7388976;19;20492;-79
2022/08/16 05:06:12;;;;;;;4.10;0.80;;;;;;;;;;7388133;19;20010;-79
2022/08/16 05:08:38;;;;;;;1.13;0.73;;;;;;;;;;7383267;19;20039;-78
2022/08/16 05:11:06;;;;;;;1.17;0.63;;;;;;;;;;7391384;19;20010;-78
2022/08/16 05:13:33;;;;;;;2.08;0.77;;;;;;;;;;7384657;19;20468;-77
2022/08/16 05:15:58;;;;;;;1.30;1.02;;;;;;;;;;7387090;19;20006;-78
2022/08/16 05:18:24;;;;;;;1.65;1.08;;;;;;;;;;7396592;19;20010;-77
2022/08/16 05:20:49;;;;;;;1.67;1.25;;;;;;;;;;7402038;19;20047;-77
2022/08/16 05:23:16;;;;;;;1.65;1.20;;;;;;;;;;7399935;19;20120;-78
2022/08/16 05:25:42;;;;;;;2.05;1.00;;;;;;;;;;7404675;19;20019;-77
2022/08/16 05:28:09;;;;;;;0.55;0.55;;;;;;;;;;7403468;19;20002;-77
2022/08/16 05:30:35;;;;;;;1.10;0.73;;;;;;;;;;7404460;19;20010;-77
2022/08/16 05:33:01;;;;;;;1.75;0.73;;;;;;;;;;7404933;19;20401;-77
2022/08/16 05:35:27;;;;;;;1.38;0.77;;;;;;;;;;7402686;19;20029;-78
2022/08/16 05:37:52;;;;;;;1.60;0.90;;;;;;;;;;7398055;19;20465;-79
2022/08/16 05:40:17;;;;;;;0.90;0.80;;;;;;;;;;7390792;19;20575;-77
2022/08/16 05:42:43;;;;;;;0.88;0.88;;;;;;;;;;7391880;19;20323;-76
2022/08/16 05:45:08;;;;;;;1.75;1.00;;;;;;;;;;7387439;19;20007;-77
2022/08/16 05:47:34;;;;;;;0.65;0.63;;;;;;;;;;7389903;19;20034;-77
2022/08/16 05:49:59;;;;;;;5.65;1.10;;;;;;;;;;7390490;19;20010;-77
2022/08/16 05:52:24;;;;;;;0.90;0.80;;;;;;;;;;7390630;19;20078;-77
2022/08/16 05:54:50;;;;;;;1.02;0.90;;;;;;;;;;7389700;19;20074;-76
2022/08/16 05:57:17;;;;;;;0.77;0.55;;;;;;;;;;7388420;19;20063;-78
2022/08/16 05:59:44;;;;;;;1.20;0.70;;;;;;;;;;7392160;19;20031;-76
2022/08/16 06:02:09;;;;;;;1.17;0.80;;;;;;;;;;7389085;19;20009;-78
2022/08/16 06:04:35;;;;;;;0.88;0.73;;;;;;;;;;7381260;19;20081;-77
2022/08/16 06:07:05;;;;;;;1.45;0.90;;;;;;;;;;7387143;19;20022;-77
2022/08/16 06:09:31;;;;;;;1.15;0.77;;;;;;;;;;7389261;19;20010;-77
2022/08/16 06:12:00;;;;;;;0.90;0.70;;;;;;;;;;7388316;19;20030;-77
2022/08/16 06:14:26;;;;;;;1.60;0.68;;;;;;;;;;7384410;19;20492;-78
2022/08/16 06:16:52;;;;;;;0.80;0.70;;;;;;;;;;7386982;19;20389;-77
2022/08/16 06:19:18;;;;;;;0.80;0.70;;;;;;;;;;7391244;19;20018;-77
2022/08/16 06:21:43;;;;;;;2.83;0.85;;;;;;;;;;7393743;19;20007;-76
2022/08/16 06:24:09;;;;;;;1.75;0.93;;;;;;;;;;7385587;19;20318;-76
2022/08/16 06:26:34;;;;;;;2.15;0.90;;;;;;;;;;7385544;19;20014;-76
2022/08/16 06:28:59;;;;;;;1.58;1.05;;;;;;;;;;7388493;19;20466;-76
2022/08/16 06:31:25;;;;;;;0.80;0.77;;;;;;;;;;7384081;19;20003;-77
2022/08/16 06:33:51;;;;;;;1.85;0.95;;;;;;;;;;7384488;19;20641;-76
2022/08/16 06:36:17;;;;;;;2.17;0.82;;;;;;;;;;7388517;19;20011;-77
2022/08/16 06:38:42;;;;;;;3.40;1.00;;;;;;;;;;7382989;19;20372;-75
2022/08/16 06:41:09;;;;;;;1.45;1.27;;;;;;;;;;7388758;19;20509;-78
2022/08/16 06:43:34;;;;;;;3.17;1.00;;;;;;;;;;7392042;19;20034;-75
2022/08/16 06:46:02;;;;;;;0.63;0.63;;;;;;;;;;7391219;19;20014;-75
2022/08/16 06:48:27;;;;;;;1.83;0.80;;;;;;;;;;7390608;19;20014;-77
2022/08/16 06:50:53;;;;;;;0.47;0.40;;;;;;;;;;7392589;19;20012;-77
2022/08/16 06:53:22;;;;;;;0.90;0.70;;;;;;;;;;7407604;19;20014;-79
2022/08/16 06:55:47;;;;;;;1.90;0.60;;;;;;;;;;7391286;19;20010;-78
2022/08/16 06:58:13;;;;;;;0.73;0.63;;;;;;;;;;7387157;19;20375;-78
2022/08/16 07:00:38;;;;;;;0.50;0.50;;;;;;;;;;7392168;19;20006;-79
2022/08/16 07:03:05;;;;;;;1.00;0.40;;;;;;;;;;7393066;19;20037;-78
2022/08/16 07:05:31;;;;;;;1.23;0.80;;;;;;;;;;7396287;19;20031;-79
2022/08/16 07:07:57;;;;;;;0.68;0.63;;;;;;;;;;7397971;19;20010;-79
2022/08/16 07:10:24;;;;;;;1.67;0.77;;;;;;;;;;7396095;19;20019;-80
2022/08/16 07:12:50;;;;;;;1.35;0.80;;;;;;;;;;7389782;19;20013;-79
2022/08/16 07:15:19;;;;;;;0.88;0.80;;;;;;;;;;7392009;19;20017;-78
2022/08/16 07:17:45;;;;;;;1.00;0.65;;;;;;;;;;7387095;19;20022;-79
2022/08/16 07:20:12;;;;;;;1.63;0.70;;;;;;;;;;7397333;19;20014;-79
2022/08/16 07:22:38;;;;;;;1.00;0.70;;;;;;;;;;7392213;19;20010;-79
2022/08/16 07:25:08;;;;;;;1.10;0.68;;;;;;;;;;7390417;19;20010;-80
2022/08/16 07:27:34;;;;;;;1.17;0.80;;;;;;;;;;7389977;19;20013;-78
2022/08/16 07:29:59;;;;;;;0.93;0.90;;;;;;;;;;7392621;19;20010;-78
2022/08/16 07:32:25;;;;;;;1.17;0.90;;;;;;;;;;7395811;19;20089;-78
2022/08/16 07:34:51;;;;;;;1.80;0.90;;;;;;;;;;7391643;19;21024;-79
2022/08/16 07:37:16;;;;;;;2.67;0.90;;;;;;;;;;7389236;19;20017;-79
2022/08/16 07:39:42;;;;;;;0.65;0.60;;;;;;;;;;7390585;19;20007;-79
2022/08/16 07:42:07;;;;;;;1.35;0.90;;;;;;;;;;7342316;19;20466;-79
2022/08/16 07:44:32;;;;;;;0.73;0.73;;;;;;;;;;7394532;19;20014;-80
2022/08/16 07:47:00;;;;;;;1.77;0.85;;;;;;;;;;7390618;19;19999;-79
2022/08/16 07:49:26;;;;;;;1.88;0.82;;;;;;;;;;7396001;19;20014;-79
2022/08/16 07:51:51;;;;;;;0.80;0.80;;;;;;;;;;7389241;19;20309;-79
2022/08/16 07:54:17;;;;;;;1.95;0.90;;;;;;;;;;7392680;19;20029;-78
2022/08/16 07:56:42;;;;;;;1.25;0.80;;;;;;;;;;7388418;19;20032;-78
2022/08/16 07:59:07;;;;;;;0.75;0.73;;;;;;;;;;7391507;19;20042;-79
2022/08/16 08:01:33;;;;;;;2.88;0.90;;;;;;;;;;7387447;19;20002;-79
2022/08/16 08:03:59;;;;;;;1.02;0.85;;;;;;;;;;7395813;19;20010;-78
2022/08/16 08:06:30;;;;;;;0.77;0.77;;;;;;;;;;7393482;19;20018;-81
2022/08/16 08:08:55;;;;;;;6.20;1.00;;;;;;;;;;7396443;19;20058;-79
2022/08/16 08:11:25;;;;;;;0.93;0.90;;;;;;;;;;7390403;19;20003;-78
2022/08/16 08:13:52;;;;;;;1.67;0.80;;;;;;;;;;7391168;19;20084;-79
2022/08/16 08:16:20;;;;;;;3.28;1.00;;;;;;;;;;7390742;19;20485;-79
2022/08/16 08:18:46;;;;;;;1.27;0.95;;;;;;;;;;7390732;19;20014;-79
2022/08/16 08:21:13;;;;;;;2.05;0.93;;;;;;;;;;7390136;19;20010;-79
2022/08/16 08:23:38;;;;;;;0.80;0.80;;;;;;;;;;7395772;19;20021;-75
2022/08/16 08:26:05;;;;;;;2.00;1.15;;;;;;;;;;7388377;19;20066;-76
2022/08/16 08:28:31;;;;;;;1.20;0.93;;;;;;;;;;7392867;19;20010;-77
2022/08/16 08:30:58;;;;;;;1.73;1.00;;;;;;;;;;7394177;19;20043;-76
2022/08/16 08:33:24;;;;;;;0.90;0.85;;;;;;;;;;7393333;19;20049;-78
2022/08/16 08:35:49;;;;;;;1.98;0.90;;;;;;;;;;7395291;19;20001;-78
2022/08/16 08:38:15;;;;;;;2.20;1.17;;;;;;;;;;7388974;19;20343;-78
2022/08/16 08:40:41;;;;;;;1.17;0.90;;;;;;;;;;7397164;19;20702;-78
2022/08/16 08:43:12;;;;;;;1.65;1.15;;;;;;;;;;7399521;19;20018;-78
2022/08/16 08:45:38;;;;;;;1.80;1.10;;;;;;;;;;7402029;19;19995;-79
2022/08/16 08:48:04;;;;;;;1.83;1.00;;;;;;;;;;7398914;19;20010;-78
2022/08/16 08:50:30;;;;;;;1.77;1.02;;;;;;;;;;7399895;19;20014;-78
2022/08/16 08:52:56;;;;;;;2.80;0.90;;;;;;;;;;7402046;19;20023;-78
2022/08/16 08:55:21;;;;;;;5.07;1.35;;;;;;;;;;7401324;19;20014;-78
2022/08/16 08:57:49;;;;;;;1.38;1.08;;;;;;;;;;7401772;19;20006;-78
2022/08/16 09:00:16;;;;;;;1.63;0.93;;;;;;;;;;7408140;19;19997;-78
2022/08/16 09:02:43;;;;;;;3.25;1.30;;;;;;;;;;7401977;19;20002;-78
2022/08/16 09:08:05;;;;;;;0.88;0.88;;;;;;;;;;7398203;19;20103;-79
2022/08/16 09:10:31;;;;;;;3.42;1.02;;;;;;;;;;7401600;19;20019;-79
2022/08/16 09:12:57;;;;;;;1.80;1.15;;;;;;;;;;7402623;19;20013;-79
2022/08/16 09:15:23;;;;;;;2.22;1.15;;;;;;;;;;7401442;19;20015;-79
2022/08/16 09:17:51;;;;;;;3.22;1.33;;;;;;;;;;7397760;19;20013;-79
2022/08/16 09:20:17;;;;;;;2.83;1.10;;;;;;;;;;7401542;19;20031;-79
2022/08/16 09:22:43;;;;;;;1.38;1.00;;;;;;;;;;7402461;19;20009;-78
2022/08/16 09:25:10;;;;;;;3.13;1.00;;;;;;;;;;7414645;19;20014;-78
2022/08/16 09:27:35;;;;;;;2.65;1.27;;;;;;;;;;7416034;19;20002;-78
2022/08/16 09:30:00;;;;;;;1.13;0.90;;;;;;;;;;7414976;19;20612;-78
2022/08/16 09:32:28;;;;;;;1.98;1.20;;;;;;;;;;7416273;19;20427;-80
2022/08/16 09:34:53;;;;;;;4.32;1.33;;;;;;;;;;7408326;19;20010;-75
2022/08/16 09:37:19;;;;;;;2.60;1.15;;;;;;;;;;7398308;19;20320;-76
2022/08/16 09:39:44;;;;;;;1.45;1.00;;;;;;;;;;7397203;19;20354;-77
2022/08/16 09:42:10;;;;;;;3.45;1.60;;;;;;;;;;7395243;19;20003;-78
2022/08/16 09:44:36;;;;;;;1.23;1.13;;;;;;;;;;7399324;19;20005;-79
2022/08/16 09:47:02;;;;;;;1.00;0.90;;;;;;;;;;7399732;19;20003;-78
2022/08/16 09:49:29;;;;;;;2.90;1.38;;;;;;;;;;7401663;19;20058;-78
2022/08/16 09:51:54;;;;;;;1.63;1.23;;;;;;;;;;7395477;19;20007;-79
2022/08/16 09:54:22;;;;;;;1.13;1.02;;;;;;;;;;7398449;19;20044;-78
2022/08/16 09:56:48;;;;;;;2.05;1.20;;;;;;;;;;7399709;19;20006;-78
2022/08/16 09:59:14;;;;;;;1.05;0.95;;;;;;;;;;7395801;19;20397;-75
2022/08/16 10:01:41;;;;;;;1.13;0.98;;;;;;;;;;7395647;19;20564;-76
2022/08/16 10:04:07;;;;;;;2.10;1.10;;;;;;;;;;7395191;19;20046;-75
2022/08/16 10:06:33;;;;;;;4.78;1.05;;;;;;;;;;7394307;19;20050;-76
2022/08/16 10:08:59;;;;;;;2.72;1.13;;;;;;;;;;7398678;19;20025;-78
2022/08/16 10:14:15;;;;;;;1.45;0.98;;;;;;;;;;7399373;19;20768;-78
2022/08/16 10:16:49;;;;;;;2.45;1.10;;;;;;;;;;7392832;19;20006;-77
2022/08/16 10:19:16;;;;;;;1.73;1.05;;;;;;;;;;7397441;19;20018;-78
2022/08/16 10:21:41;;;;;;;2.22;1.10;;;;;;;;;;7400230;19;20033;-80
2022/08/16 10:24:08;;;;;;;1.60;1.17;;;;;;;;;;7396194;19;20010;-78
2022/08/16 10:26:34;;;;;;;1.30;1.20;;;;;;;;;;7397404;19;20017;-79
2022/08/16 10:29:01;;;;;;;2.65;1.20;;;;;;;;;;7398647;19;20025;-78
2022/08/16 10:31:26;;;;;;;1.25;0.98;;;;;;;;;;7398943;19;20010;-79
2022/08/16 10:33:52;;;;;;;2.75;1.10;;;;;;;;;;7398102;19;20013;-78
2022/08/16 10:36:19;;;;;;;1.98;1.10;;;;;;;;;;7397796;19;20009;-79
2022/08/16 10:38:44;;;;;;;2.35;1.20;;;;;;;;;;7397748;19;20477;-79
2022/08/16 10:41:47;;;;;;;1.73;1.17;;;;;;;;;;7395710;19;20002;-79
2022/08/16 10:44:13;;;;;;;2.28;1.20;;;;;;;;;;7393212;19;20011;-62
2022/08/16 10:46:39;;;;;;;8.20;1.58;;;;;;;;;;7385670;19;20094;-62
2022/08/16 10:49:04;;;;;;;1.80;1.15;;;;;;;;;;7376954;19;20508;-62
2022/08/16 10:51:31;;;;;;;2.38;1.17;;;;;;;;;;7373408;19;20014;-62
2022/08/16 10:53:57;;;;;;;1.35;1.13;;;;;;;;;;7379691;19;20011;-62
2022/08/16 10:56:24;;;;;;;2.40;1.15;;;;;;;;;;7375311;19;20081;-63
2022/08/16 10:58:50;;;;;;;4.18;1.25;;;;;;;;;;7380640;19;20018;-62
2022/08/16 11:01:15;;;;;;;1.63;1.20;;;;;;;;;;7382611;19;20035;-60
2022/08/16 11:03:41;;;;;;;2.83;1.00;;;;;;;;;;7384186;19;20014;-62
2022/08/16 11:06:07;;;;;;;2.05;1.35;;;;;;;;;;7385921;19;20091;-62
2022/08/16 11:08:37;;;;;;;2.33;1.25;;;;;;;;;;7385754;19;20006;-62
2022/08/16 11:11:05;;;;;;;1.88;1.00;;;;;;;;;;7382969;19;20014;-63
2022/08/16 11:13:30;;;;;;;1.85;1.10;;;;;;;;;;7381892;19;20006;-62
2022/08/16 11:15:56;;;;;;;2.78;1.02;;;;;;;;;;7385258;19;20427;-63
2022/08/16 11:18:22;;;;;;;1.75;1.02;;;;;;;;;;7383381;19;20014;-63
2022/08/16 11:20:47;;;;;;;3.05;1.15;;;;;;;;;;7385873;19;20015;-63
2022/08/16 11:23:14;;;;;;;3.40;1.10;;;;;;;;;;7378056;19;20022;-63
2022/08/16 11:25:39;;;;;;;2.97;1.20;;;;;;;;;;7387975;19;20030;-63
2022/08/16 11:28:06;;;;;;;2.65;1.10;;;;;;;;;;7383642;19;20018;-61
2022/08/16 11:30:32;;;;;;;1.05;1.00;;;;;;;;;;7385173;19;20395;-63
2022/08/16 11:33:00;;;;;;;1.70;1.17;;;;;;;;;;7380444;19;20014;-63
2022/08/16 11:35:27;;;;;;;1.48;1.13;;;;;;;;;;7383120;19;20003;-60
2022/08/16 11:37:59;;;;;;;1.40;1.17;;;;;;;;;;7378422;19;20025;-63
2022/08/16 11:40:27;;;;;;;1.77;1.02;;;;;;;;;;7385287;19;20050;-64
2022/08/16 11:42:53;;;;;;;1.42;1.10;;;;;;;;;;7382524;19;20014;-63
2022/08/16 11:45:18;;;;;;;1.27;1.00;;;;;;;;;;7385568;19;20055;-63
2022/08/16 11:47:44;;;;;;;1.33;0.90;;;;;;;;;;7383011;19;20484;-63
2022/08/16 11:50:10;;;;;;;1.13;0.90;;;;;;;;;;7383352;19;20013;-64
2022/08/16 11:52:36;;;;;;;4.32;1.45;;;;;;;;;;7383334;19;20341;-63
2022/08/16 11:55:04;;;;;;;2.25;0.90;;;;;;;;;;7384281;19;20031;-63
2022/08/16 11:57:30;;;;;;;1.27;1.17;;;;;;;;;;7383380;19;20478;-63
2022/08/16 11:59:56;;;;;;;1.30;1.00;;;;;;;;;;7377010;19;20014;-65
2022/08/16 12:02:21;;;;;;;1.83;1.25;;;;;;;;;;7379275;19;20551;-64
2022/08/16 12:04:47;;;;;;;0.95;0.95;;;;;;;;;;7390494;19;20010;-65
2022/08/16 12:07:12;;;;;;;1.52;1.00;;;;;;;;;;7391431;19;20042;-65
2022/08/16 12:09:38;;;;;;;2.03;1.10;;;;;;;;;;7390659;19;20698;-65
2022/08/16 12:12:04;;;;;;;1.80;1.15;;;;;;;;;;7390680;19;20014;-64
2022/08/16 12:14:31;;;;;;;1.30;1.00;;;;;;;;;;7386005;19;20006;-65
2022/08/16 12:16:59;;;;;;;1.38;1.08;;;;;;;;;;7388937;19;20018;-65
2022/08/16 12:19:24;;;;;;;1.80;0.90;;;;;;;;;;7386269;19;20033;-65
2022/08/16 12:21:50;;;;;;;1.45;1.20;;;;;;;;;;7387641;19;20440;-64
2022/08/16 12:24:15;;;;;;;1.40;1.10;;;;;;;;;;7386480;19;20443;-64
2022/08/16 12:26:41;;;;;;;3.20;1.02;;;;;;;;;;7386078;19;20504;-64
2022/08/16 12:29:07;;;;;;;5.18;1.30;;;;;;;;;;7376559;19;20078;-65
2022/08/16 12:31:32;;;;;;;2.38;1.10;;;;;;;;;;7388004;19;20014;-65
2022/08/16 12:33:57;;;;;;;3.03;1.05;;;;;;;;;;7383415;19;20006;-64
2022/08/16 12:36:23;;;;;;;5.68;1.10;;;;;;;;;;7390947;19;20023;-62
2022/08/16 12:38:49;;;;;;;1.67;0.90;;;;;;;;;;7387221;19;20018;-66
2022/08/16 12:41:15;;;;;;;3.25;1.20;;;;;;;;;;7390013;19;20018;-65
2022/08/16 12:43:40;;;;;;;2.47;1.40;;;;;;;;;;7389476;19;20517;-65
2022/08/16 12:46:08;;;;;;;2.15;0.98;;;;;;;;;;7389444;19;20014;-64
2022/08/16 12:51:21;;;;;;;2.80;1.27;;;;;;;;;;7389726;19;20027;-65
2022/08/16 12:53:52;;;;;;;1.77;1.10;;;;;;;;;;7387502;19;20477;-65
2022/08/16 12:56:20;;;;;;;2.60;1.15;;;;;;;;;;7389803;19;20015;-65
2022/08/16 12:58:49;;;;;;;1.40;1.10;;;;;;;;;;7388828;19;20028;-65
2022/08/16 13:01:17;;;;;;;2.22;1.30;;;;;;;;;;7383297;19;20559;-65
2022/08/16 13:03:44;;;;;;;1.02;0.98;;;;;;;;;;7383882;19;19998;-65
2022/08/16 13:06:10;;;;;;;2.03;1.02;;;;;;;;;;7389612;19;20381;-65
2022/08/16 13:08:36;;;;;;;0.90;0.90;;;;;;;;;;7389002;19;20014;-66
2022/08/16 13:11:03;;;;;;;3.28;1.17;;;;;;;;;;7389373;19;20021;-65
2022/08/16 13:13:30;;;;;;;1.52;1.02;;;;;;;;;;7386679;19;20006;-63
2022/08/16 13:15:58;;;;;;;2.10;1.20;;;;;;;;;;7386405;19;20493;-64
2022/08/16 13:18:26;;;;;;;2.45;0.85;;;;;;;;;;7382076;19;20497;-64
2022/08/16 13:20:52;;;;;;;1.15;0.98;;;;;;;;;;7387884;19;20014;-65
2022/08/16 13:23:18;;;;;;;1.13;1.02;;;;;;;;;;7390331;19;20396;-65
2022/08/16 13:25:45;;;;;;;1.65;1.10;;;;;;;;;;7386952;19;20018;-63
2022/08/16 13:28:12;;;;;;;1.95;1.30;;;;;;;;;;7386321;19;20044;-67
2022/08/16 13:30:42;;;;;;;3.28;1.15;;;;;;;;;;7385888;19;20031;-64
2022/08/16 13:33:13;;;;;;;4.25;1.17;;;;;;;;;;7385438;19;20537;-65
2022/08/16 13:35:41;;;;;;;4.18;1.25;;;;;;;;;;7382672;19;20467;-64
2022/08/16 13:38:07;;;;;;;2.00;1.10;;;;;;;;;;7385562;19;20014;-65
2022/08/16 13:40:32;;;;;;;1.25;1.13;;;;;;;;;;7386806;19;20342;-63
2022/08/16 13:42:58;;;;;;;1.83;1.30;;;;;;;;;;7390427;19;20081;-63
2022/08/16 13:45:24;;;;;;;2.90;1.25;;;;;;;;;;7388969;19;20022;-64
2022/08/16 13:47:50;;;;;;;1.42;1.20;;;;;;;;;;7387770;19;20065;-63
2022/08/16 13:50:15;;;;;;;4.25;1.45;;;;;;;;;;7380097;19;20011;-65
2022/08/16 13:52:41;;;;;;;1.00;1.00;;;;;;;;;;7382950;19;20010;-63
2022/08/16 13:55:08;;;;;;;2.30;1.17;;;;;;;;;;7388803;19;20399;-63
2022/08/16 13:57:33;;;;;;;2.78;1.20;;;;;;;;;;7388645;19;20002;-64
2022/08/16 13:59:58;;;;;;;1.30;1.20;;;;;;;;;;7386009;19;20024;-62
2022/08/16 14:02:24;;;;;;;1.42;1.08;;;;;;;;;;7385239;19;20022;-63
2022/08/16 14:04:49;;;;;;;3.53;1.45;;;;;;;;;;7389102;19;20006;-63
2022/08/16 14:07:15;;;;;;;2.15;1.00;;;;;;;;;;7386369;19;20085;-64
2022/08/16 14:09:41;;;;;;;1.40;1.30;;;;;;;;;;7386232;19;20010;-63
2022/08/16 14:12:20;;;;;;;1.23;1.10;;;;;;;;;;7387478;19;20031;-64
2022/08/16 14:14:47;;;;;;;3.03;1.20;;;;;;;;;;7388811;19;20024;-65
2022/08/16 14:17:14;;;;;;;2.17;1.05;;;;;;;;;;7388469;19;20010;-64
2022/08/16 14:19:39;;;;;;;1.58;1.10;;;;;;;;;;7386580;19;20369;-64
2022/08/16 14:22:05;;;;;;;1.17;1.08;;;;;;;;;;7388793;19;20471;-64
2022/08/16 14:24:30;;;;;;;4.28;1.20;;;;;;;;;;7386422;19;20366;-66
2022/08/16 14:26:55;;;;;;;1.55;1.10;;;;;;;;;;7387614;19;20040;-63
2022/08/16 14:29:21;;;;;;;3.40;1.30;;;;;;;;;;7385675;19;20030;-64
2022/08/16 14:31:47;;;;;;;2.45;1.10;;;;;;;;;;7384554;19;20018;-64
2022/08/16 14:34:13;;;;;;;1.48;1.08;;;;;;;;;;7385589;19;20030;-64
2022/08/16 14:36:38;;;;;;;3.85;1.33;;;;;;;;;;7386860;19;20078;-63
2022/08/16 14:39:03;;;;;;;2.80;1.20;;;;;;;;;;7386559;19;20012;-65
2022/08/16 14:41:29;;;;;;;3.20;1.30;;;;;;;;;;7384317;19;20011;-64
2022/08/16 14:43:55;;;;;;;1.92;1.17;;;;;;;;;;7386449;19;20010;-64
2022/08/16 14:46:20;;;;;;;1.15;1.05;;;;;;;;;;7389001;19;20094;-65